Time;durP1;ratioP1;P1;durP2;ratioP2;P2;SDS_P1;SDS_P2;PMS_P1;PMS_P2;Temp;Humidity;BMP_temperature;BMP_pressure;BME280_temperature;BME280_humidity;BME280_pressure;Samples;Min_cycle;Max_cycle;Signal;HPM_P1;HPM_P2
2021/12/10 00:01:03;;;;;;;11.55;2.10;;;0.00;98.00;;;;;;5015271;28;20026;-77
2021/12/10 00:03:43;;;;;;;8.35;2.20;;;0.00;98.00;;;;;;5014475;28;20335;-77
2021/12/10 00:06:25;;;;;;;7.90;2.33;;;0.10;98.00;;;;;;5014849;28;20065;-78
2021/12/10 00:08:54;;;;;;;7.72;2.10;;;0.00;98.00;;;;;;5013224;28;20109;-77
2021/12/10 00:11:25;;;;;;;8.88;2.63;;;-0.20;98.00;;;;;;5013913;28;20034;-78
2021/12/10 00:13:54;;;;;;;5.15;1.95;;;-0.20;98.00;;;;;;5013950;28;20164;-77
2021/12/10 00:16:24;;;;;;;9.00;1.80;;;-0.20;98.00;;;;;;5013989;28;20025;-78
2021/12/10 00:18:56;;;;;;;7.10;1.77;;;0.00;97.30;;;;;;5016915;28;20036;-77
2021/12/10 00:21:25;;;;;;;10.27;2.35;;;-0.10;97.90;;;;;;5018615;28;20022;-78
2021/12/10 00:23:51;;;;;;;7.30;2.00;;;-0.10;97.40;;;;;;5016033;28;20033;-77
2021/12/10 00:26:20;;;;;;;5.57;1.52;;;0.10;95.80;;;;;;5018420;28;20037;-77
2021/12/10 00:28:47;;;;;;;6.00;1.65;;;0.30;94.90;;;;;;5018186;28;20048;-78
2021/12/10 00:34:06;;;;;;;7.70;1.95;;;0.00;96.90;;;;;;5018327;28;20026;-77
2021/12/10 00:36:33;;;;;;;6.05;2.10;;;-0.20;98.00;;;;;;5008928;28;20026;-78
2021/12/10 00:39:01;;;;;;;7.03;2.60;;;-0.30;98.00;;;;;;5017624;28;20044;-77
2021/12/10 00:41:28;;;;;;;9.95;2.35;;;-0.50;98.00;;;;;;5018032;28;20081;-78
2021/12/10 00:43:53;;;;;;;9.00;2.70;;;-0.50;98.00;;;;;;5017776;28;20033;-77
2021/12/10 00:46:19;;;;;;;6.97;2.17;;;-0.60;98.00;;;;;;5016091;28;20036;-77
2021/12/10 00:48:45;;;;;;;9.60;2.40;;;-0.70;98.00;;;;;;5018687;28;20503;-77
2021/12/10 00:51:12;;;;;;;8.25;2.13;;;-0.70;98.00;;;;;;5018563;28;20064;-77
2021/12/10 00:53:39;;;;;;;12.27;3.05;;;-0.70;98.00;;;;;;5017497;28;20026;-78
2021/12/10 00:56:06;;;;;;;8.40;2.10;;;-0.70;98.00;;;;;;5013776;28;20077;-76
2021/12/10 00:58:32;;;;;;;8.98;2.80;;;-0.60;98.00;;;;;;5016322;28;20053;-77
2021/12/10 01:01:07;;;;;;;7.82;2.25;;;-0.60;98.00;;;;;;5019251;28;20105;-76
2021/12/10 01:03:43;;;;;;;10.07;2.70;;;-0.70;98.00;;;;;;5007875;28;20354;-77
2021/12/10 01:06:12;;;;;;;8.90;2.40;;;-0.80;98.00;;;;;;5017530;28;20034;-77
2021/12/10 01:08:41;;;;;;;6.18;2.10;;;-0.90;98.00;;;;;;5014067;28;20419;-78
2021/12/10 01:11:23;;;;;;;9.10;2.33;;;-0.90;98.00;;;;;;5013735;28;20080;-77
2021/12/10 01:13:55;;;;;;;12.60;2.80;;;-0.90;98.00;;;;;;5016966;28;20419;-77
2021/12/10 01:27:02;;;;;;;10.23;2.70;;;-1.20;98.00;;;;;;5017559;28;20037;-77
2021/12/10 01:29:34;;;;;;;9.63;2.38;;;-1.20;98.00;;;;;;5013911;28;20092;-77
2021/12/10 01:32:02;;;;;;;10.45;3.00;;;-1.20;98.00;;;;;;5017586;28;20025;-76
2021/12/10 01:34:28;;;;;;;9.20;2.70;;;-1.10;98.00;;;;;;5017718;28;20018;-77
2021/12/10 01:36:54;;;;;;;8.38;3.00;;;-1.10;98.00;;;;;;5016344;28;20072;-77
2021/12/10 01:39:23;;;;;;;9.05;2.92;;;-1.10;98.00;;;;;;5017479;28;20033;-77
2021/12/10 01:41:56;;;;;;;11.05;4.00;;;-1.20;98.00;;;;;;5016668;28;20323;-76
2021/12/10 01:44:30;;;;;;;8.70;3.55;;;-1.30;98.00;;;;;;5017836;28;20078;-76
2021/12/10 01:47:01;;;;;;;11.60;4.75;;;-1.40;98.00;;;;;;5016342;28;20473;-76
2021/12/10 01:49:27;;;;;;;10.85;6.47;;;-1.40;98.00;;;;;;5016216;28;20028;-79
2021/12/10 01:51:53;;;;;;;10.70;5.35;;;-1.40;98.00;;;;;;5016765;28;20022;-78
2021/12/10 01:54:28;;;;;;;11.75;5.25;;;-1.40;98.00;;;;;;5016039;28;20091;-78
2021/12/10 01:57:00;;;;;;;9.50;4.82;;;-1.40;98.00;;;;;;5016029;28;20033;-79
2021/12/10 01:59:28;;;;;;;9.77;4.90;;;-1.40;98.00;;;;;;5015450;28;20033;-78
2021/12/10 02:02:00;;;;;;;12.75;5.43;;;-1.50;98.00;;;;;;5015903;28;20124;-78
2021/12/10 02:04:29;;;;;;;11.82;5.35;;;-1.50;98.00;;;;;;5000578;28;20026;-77
2021/12/10 02:06:56;;;;;;;10.60;4.93;;;-1.50;98.00;;;;;;5013642;28;20083;-77
2021/12/10 02:09:22;;;;;;;10.55;4.82;;;-1.50;98.00;;;;;;5016191;28;20423;-77
2021/12/10 02:11:49;;;;;;;9.30;4.45;;;-1.50;98.00;;;;;;5013111;28;20057;-77
2021/12/10 02:14:14;;;;;;;14.10;4.53;;;-1.50;98.00;;;;;;5013891;28;20415;-77
2021/12/10 02:16:44;;;;;;;10.07;5.47;;;-1.40;98.00;;;;;;5016623;28;20026;-76
2021/12/10 02:19:12;;;;;;;13.43;5.38;;;-1.30;98.00;;;;;;5017370;28;20132;-77
2021/12/10 02:21:39;;;;;;;17.33;5.57;;;-1.30;98.00;;;;;;5015792;28;20119;-77
2021/12/10 02:24:07;;;;;;;12.85;5.88;;;-1.40;98.00;;;;;;5015771;28;20133;-76
2021/12/10 02:26:36;;;;;;;9.23;5.75;;;-1.40;98.00;;;;;;5015679;28;20438;-77
2021/12/10 02:29:03;;;;;;;9.88;5.50;;;-1.40;98.00;;;;;;5015478;28;20052;-77
2021/12/10 02:31:29;;;;;;;11.05;5.75;;;-1.40;98.00;;;;;;5014287;28;20594;-78
2021/12/10 02:33:55;;;;;;;10.55;5.45;;;-1.40;98.00;;;;;;5015223;28;20025;-77
2021/12/10 02:36:22;;;;;;;12.23;5.93;;;-1.40;98.00;;;;;;5014804;28;20438;-78
2021/12/10 02:38:50;;;;;;;10.90;6.03;;;-1.40;98.00;;;;;;5012335;28;20453;-77
2021/12/10 02:41:18;;;;;;;15.23;6.63;;;-1.40;98.00;;;;;;5013883;28;20034;-77
2021/12/10 02:43:45;;;;;;;10.02;6.47;;;-1.50;98.00;;;;;;5010872;28;20053;-77
2021/12/10 02:46:11;;;;;;;12.02;6.53;;;-1.40;98.00;;;;;;5012504;28;20304;-77
2021/12/10 02:48:37;;;;;;;13.75;6.32;;;-1.30;98.00;;;;;;5018294;28;20045;-77
2021/12/10 02:51:04;;;;;;;12.07;6.72;;;-1.40;98.00;;;;;;5014361;28;20057;-78
2021/12/10 02:53:35;;;;;;;12.55;6.65;;;-1.40;98.00;;;;;;5014881;28;20048;-77
2021/12/10 02:56:01;;;;;;;11.10;6.28;;;-1.30;98.00;;;;;;5014326;28;20158;-77
2021/12/10 02:58:27;;;;;;;13.05;6.95;;;-1.30;98.00;;;;;;5013216;28;20441;-77
2021/12/10 03:00:55;;;;;;;13.63;6.55;;;-1.40;98.00;;;;;;5013513;28;20441;-77
2021/12/10 03:03:21;;;;;;;14.05;6.80;;;-1.40;98.00;;;;;;5012232;28;20038;-77
2021/12/10 03:05:47;;;;;;;14.57;7.40;;;-1.50;98.00;;;;;;5015416;28;20095;-77
2021/12/10 03:08:13;;;;;;;21.00;7.53;;;-1.50;98.00;;;;;;5012427;28;20105;-78
2021/12/10 03:10:40;;;;;;;13.50;7.45;;;-1.40;98.00;;;;;;5015402;28;20036;-77
2021/12/10 03:13:09;;;;;;;17.73;7.85;;;-1.40;98.00;;;;;;5015542;28;20034;-77
2021/12/10 03:15:35;;;;;;;15.20;7.72;;;-1.50;98.00;;;;;;5015056;28;20121;-77
2021/12/10 03:18:02;;;;;;;15.85;7.88;;;-1.50;98.00;;;;;;5015499;28;20029;-77
2021/12/10 03:20:30;;;;;;;14.07;7.45;;;-1.60;98.00;;;;;;5015252;28;20022;-77
2021/12/10 03:22:58;;;;;;;16.27;7.80;;;-1.50;98.00;;;;;;5014082;28;20030;-77
2021/12/10 03:25:24;;;;;;;13.93;7.47;;;-1.40;98.00;;;;;;5030577;28;20526;-77
2021/12/10 03:27:50;;;;;;;12.98;7.78;;;-1.40;98.00;;;;;;5012298;28;20124;-78
2021/12/10 03:30:22;;;;;;;12.20;7.22;;;-1.30;98.00;;;;;;5010028;28;20064;-77
2021/12/10 03:32:48;;;;;;;15.27;7.43;;;-1.30;98.00;;;;;;5013286;28;20358;-77
2021/12/10 03:35:24;;;;;;;16.23;7.63;;;-1.30;98.00;;;;;;5015337;28;20430;-77
2021/12/10 03:37:50;;;;;;;13.05;6.97;;;-1.20;98.00;;;;;;5008979;28;20026;-77
2021/12/10 03:40:18;;;;;;;12.77;6.97;;;-1.20;98.00;;;;;;5015325;28;20052;-77
2021/12/10 03:42:47;;;;;;;13.82;7.50;;;-1.20;98.00;;;;;;5013808;28;20029;-77
2021/12/10 03:45:17;;;;;;;15.57;6.55;;;-1.30;98.00;;;;;;5004810;28;20335;-77
2021/12/10 03:47:44;;;;;;;15.35;7.70;;;-1.30;98.00;;;;;;5015579;28;20137;-78
2021/12/10 03:50:12;;;;;;;14.43;7.22;;;-1.30;98.00;;;;;;5017267;28;20024;-77
2021/12/10 03:52:38;;;;;;;15.25;8.27;;;-1.20;98.00;;;;;;5010011;28;20032;-78
2021/12/10 03:55:06;;;;;;;12.50;7.75;;;-1.20;98.00;;;;;;5015003;28;20065;-77
2021/12/10 03:57:31;;;;;;;27.63;11.60;;;-1.30;98.00;;;;;;5017908;28;20026;-78
2021/12/10 03:59:57;;;;;;;13.35;7.90;;;-1.40;98.00;;;;;;5018677;28;20113;-78
2021/12/10 04:02:23;;;;;;;13.13;8.20;;;-1.50;98.00;;;;;;5020987;28;20061;-78
2021/12/10 04:04:50;;;;;;;13.75;8.07;;;-1.50;98.00;;;;;;5018674;28;20076;-78
2021/12/10 04:07:20;;;;;;;15.30;8.48;;;-1.50;98.00;;;;;;5018544;28;20049;-77
2021/12/10 04:09:53;;;;;;;21.15;9.07;;;-1.40;98.00;;;;;;5018661;28;20030;-78
2021/12/10 04:12:19;;;;;;;15.40;8.88;;;-1.30;98.00;;;;;;5019211;28;20018;-78
2021/12/10 04:14:47;;;;;;;15.98;8.77;;;-1.30;98.00;;;;;;5017462;28;20474;-77
2021/12/10 04:17:13;;;;;;;15.90;9.05;;;-1.30;98.00;;;;;;5013291;28;20026;-78
2021/12/10 04:19:40;;;;;;;14.63;8.82;;;-1.40;98.00;;;;;;5018441;28;20101;-78
2021/12/10 04:22:08;;;;;;;15.55;8.82;;;-1.40;98.00;;;;;;5016272;28;20033;-77
2021/12/10 04:24:37;;;;;;;18.40;8.98;;;-1.40;98.00;;;;;;5017128;28;20427;-78
2021/12/10 04:27:05;;;;;;;18.60;9.23;;;-1.40;98.00;;;;;;5013604;28;20050;-77
2021/12/10 04:29:31;;;;;;;16.27;9.00;;;-1.40;98.00;;;;;;4996253;28;20648;-77
2021/12/10 04:31:58;;;;;;;15.80;8.85;;;-1.40;98.00;;;;;;4997889;28;20045;-77
2021/12/10 04:34:24;;;;;;;15.93;9.32;;;-1.40;98.00;;;;;;4997340;28;20031;-77
2021/12/10 04:36:52;;;;;;;16.08;9.25;;;-1.40;98.00;;;;;;4997589;28;20038;-77
2021/12/10 04:39:19;;;;;;;20.23;12.48;;;-1.40;98.00;;;;;;4998005;28;20036;-77
2021/12/10 04:41:44;;;;;;;17.50;10.80;;;-1.40;98.00;;;;;;4998099;28;20030;-77
2021/12/10 04:44:10;;;;;;;57.67;26.80;;;-1.40;98.00;;;;;;4996370;28;20030;-78
2021/12/10 04:46:36;;;;;;;48.05;21.85;;;-1.40;98.00;;;;;;4998671;28;20420;-79
2021/12/10 04:49:10;;;;;;;124.88;46.95;;;-1.40;98.00;;;;;;4998699;28;20081;-78
2021/12/10 04:51:48;;;;;;;39.13;17.92;;;-1.40;98.00;;;;;;4998030;28;20022;-78
2021/12/10 04:54:15;;;;;;;28.20;12.52;;;-1.40;98.00;;;;;;4997640;28;20099;-78
2021/12/10 04:56:42;;;;;;;24.63;13.93;;;-1.30;98.00;;;;;;4998354;28;20054;-78
2021/12/10 04:59:10;;;;;;;30.10;15.85;;;-1.30;98.00;;;;;;4996161;28;20026;-77
2021/12/10 05:01:37;;;;;;;29.65;16.10;;;-1.30;98.00;;;;;;4999946;28;20026;-78
2021/12/10 05:04:06;;;;;;;28.17;16.05;;;-1.30;98.00;;;;;;4995569;28;20301;-78
2021/12/10 05:06:33;;;;;;;42.70;19.65;;;-1.30;98.00;;;;;;4997466;28;20125;-78
2021/12/10 05:08:58;;;;;;;23.77;13.93;;;-1.30;98.00;;;;;;4996110;28;20053;-78
2021/12/10 05:11:24;;;;;;;32.85;16.13;;;-1.30;98.00;;;;;;4997675;28;20348;-78
2021/12/10 05:13:50;;;;;;;44.63;19.73;;;-1.40;98.00;;;;;;4997987;28;20446;-77
2021/12/10 05:16:24;;;;;;;41.50;18.63;;;-1.40;98.00;;;;;;4998120;28;20427;-77
2021/12/10 05:18:56;;;;;;;30.20;14.55;;;-1.40;98.00;;;;;;4999125;28;20129;-78
2021/12/10 05:21:21;;;;;;;28.83;14.45;;;-1.50;98.00;;;;;;4997497;28;20034;-77
2021/12/10 05:23:47;;;;;;;39.63;17.02;;;-1.50;98.00;;;;;;4996362;28;20370;-77
2021/12/10 05:26:13;;;;;;;30.60;15.40;;;-1.50;98.00;;;;;;4998371;28;20026;-77
2021/12/10 05:28:39;;;;;;;26.75;13.20;;;-1.50;98.00;;;;;;5010902;28;20427;-76
2021/12/10 05:31:05;;;;;;;21.27;11.80;;;-1.40;98.00;;;;;;5016965;28;20022;-77
2021/12/10 05:33:31;;;;;;;29.60;14.18;;;-1.40;98.00;;;;;;5017339;28;20413;-77
2021/12/10 05:35:58;;;;;;;27.05;12.80;;;-1.40;98.00;;;;;;5017456;28;20029;-77
2021/12/10 05:38:24;;;;;;;35.47;17.17;;;-1.40;98.00;;;;;;5008109;28;20026;-78
2021/12/10 05:40:54;;;;;;;27.52;12.38;;;-1.40;98.00;;;;;;5016605;28;20030;-77
2021/12/10 05:43:20;;;;;;;27.38;13.75;;;-1.40;98.00;;;;;;5016538;28;20045;-77
2021/12/10 05:45:47;;;;;;;29.75;13.02;;;-1.40;98.00;;;;;;5016287;28;20116;-77
2021/12/10 05:48:13;;;;;;;22.27;10.63;;;-1.30;98.00;;;;;;5014223;28;20022;-77
2021/12/10 05:50:38;;;;;;;24.73;12.98;;;-1.30;98.00;;;;;;5016279;28;20022;-78
2021/12/10 05:53:06;;;;;;;22.92;11.90;;;-1.30;98.00;;;;;;5021056;28;20022;-77
2021/12/10 05:55:32;;;;;;;23.88;12.95;;;-1.40;98.00;;;;;;5017138;28;20049;-75
2021/12/10 05:57:58;;;;;;;23.00;11.27;;;-1.30;98.00;;;;;;5016331;28;20109;-77
2021/12/10 06:00:29;;;;;;;18.83;10.05;;;-1.30;98.00;;;;;;5014553;28;20149;-74
2021/12/10 06:02:55;;;;;;;17.33;9.02;;;-1.30;98.00;;;;;;5009421;28;20044;-77
2021/12/10 06:05:21;;;;;;;13.65;8.25;;;-1.20;98.00;;;;;;5011559;28;20088;-77
2021/12/10 06:07:47;;;;;;;18.25;9.05;;;-1.20;98.00;;;;;;5008125;28;20482;-77
2021/12/10 06:10:15;;;;;;;14.38;8.27;;;-1.20;98.00;;;;;;5011170;28;20033;-78
2021/12/10 06:12:42;;;;;;;18.65;8.90;;;-1.20;98.00;;;;;;5016096;28;20296;-77
2021/12/10 06:15:11;;;;;;;16.67;8.35;;;-1.20;98.00;;;;;;5014021;28;20044;-78
2021/12/10 06:17:37;;;;;;;13.15;7.30;;;-1.20;98.00;;;;;;5015501;28;20415;-79
2021/12/10 06:20:09;;;;;;;13.65;6.95;;;-1.10;98.00;;;;;;5004996;28;20030;-77
2021/12/10 06:22:35;;;;;;;13.30;6.78;;;-1.10;98.00;;;;;;5014854;28;20026;-77
2021/12/10 06:25:02;;;;;;;13.68;7.07;;;-1.10;98.00;;;;;;5017248;28;20419;-78
2021/12/10 06:27:28;;;;;;;15.43;6.20;;;-1.10;98.00;;;;;;5015449;28;20447;-77
2021/12/10 06:29:53;;;;;;;13.32;6.95;;;-1.10;98.00;;;;;;5016657;28;20045;-78
2021/12/10 06:32:19;;;;;;;15.70;7.47;;;-1.10;98.00;;;;;;5016007;28;20112;-78
2021/12/10 06:34:45;;;;;;;14.57;7.55;;;-1.20;98.00;;;;;;5015769;28;20026;-77
2021/12/10 06:37:11;;;;;;;15.90;7.20;;;-1.10;98.00;;;;;;5011931;28;20045;-78
2021/12/10 06:39:37;;;;;;;14.02;6.43;;;-1.10;98.00;;;;;;5001895;28;20026;-79
2021/12/10 06:42:03;;;;;;;13.63;7.38;;;-1.20;98.00;;;;;;5016919;28;20111;-79
2021/12/10 06:44:29;;;;;;;14.50;6.90;;;-1.20;98.00;;;;;;5014029;28;20324;-79
2021/12/10 06:46:55;;;;;;;15.10;6.20;;;-1.20;98.00;;;;;;5013290;28;20036;-78
2021/12/10 06:49:20;;;;;;;13.40;6.45;;;-1.30;98.00;;;;;;5003989;28;20482;-78
2021/12/10 06:51:47;;;;;;;18.40;11.18;;;-1.40;98.00;;;;;;5000972;28;20037;-78
2021/12/10 06:54:13;;;;;;;17.10;9.82;;;-1.40;98.00;;;;;;5015275;28;20041;-77
2021/12/10 06:56:39;;;;;;;9.55;5.07;;;-1.30;97.20;;;;;;5016186;28;20021;-78
2021/12/10 06:59:08;;;;;;;9.32;4.55;;;-1.30;96.90;;;;;;5016529;28;20030;-78
2021/12/10 07:01:39;;;;;;;12.82;6.03;;;-1.10;95.20;;;;;;5015553;28;20042;-77
2021/12/10 07:04:11;;;;;;;7.72;4.45;;;-1.10;95.20;;;;;;5015309;28;20026;-79
2021/12/10 07:06:39;;;;;;;8.07;5.60;;;-1.20;95.10;;;;;;5015114;28;20430;-78
2021/12/10 07:09:13;;;;;;;6.75;3.10;;;-1.10;93.20;;;;;;5014043;28;20038;-78
2021/12/10 07:11:39;;;;;;;7.80;3.42;;;-1.00;92.00;;;;;;5015399;28;20025;-78
2021/12/10 07:14:05;;;;;;;7.18;3.25;;;-0.90;91.90;;;;;;5015182;28;20075;-78
2021/12/10 07:16:32;;;;;;;7.82;4.10;;;-0.90;91.90;;;;;;5015497;28;20030;-78
2021/12/10 07:19:00;;;;;;;7.72;4.38;;;-1.00;92.40;;;;;;5015356;28;20038;-78
2021/12/10 07:21:31;;;;;;;10.13;6.25;;;-1.10;93.30;;;;;;5014597;28;20026;-79
2021/12/10 07:23:59;;;;;;;11.98;5.82;;;-1.00;92.60;;;;;;5013212;28;20427;-78
2021/12/10 07:26:27;;;;;;;8.65;4.32;;;-1.10;93.60;;;;;;5015874;28;20030;-77
2021/12/10 07:28:52;;;;;;;6.10;3.85;;;-1.10;93.80;;;;;;5014810;28;20085;-78
2021/12/10 07:31:18;;;;;;;7.70;4.05;;;-1.20;94.40;;;;;;5015588;28;20411;-76
2021/12/10 07:33:44;;;;;;;5.97;3.88;;;-1.20;94.40;;;;;;5015271;28;20022;-76
2021/12/10 07:36:10;;;;;;;7.78;3.70;;;-1.30;94.80;;;;;;5015458;28;20092;-77
2021/12/10 07:38:36;;;;;;;6.25;3.40;;;-1.30;95.00;;;;;;5014892;28;20080;-78
2021/12/10 07:41:06;;;;;;;6.40;3.28;;;-1.30;94.10;;;;;;5014771;28;20411;-77
2021/12/10 07:43:33;;;;;;;7.88;4.13;;;-1.20;93.90;;;;;;5015590;28;20022;-78
2021/12/10 07:45:59;;;;;;;8.57;3.78;;;-1.20;93.80;;;;;;5014352;28;20030;-78
2021/12/10 07:48:27;;;;;;;6.88;3.10;;;-1.20;93.60;;;;;;5014574;28;20113;-78
2021/12/10 07:51:02;;;;;;;8.23;3.53;;;-1.10;93.20;;;;;;5014620;28;20026;-78
2021/12/10 07:53:30;;;;;;;7.15;4.22;;;-1.00;92.10;;;;;;5014266;28;20018;-77
2021/12/10 07:56:01;;;;;;;6.35;3.35;;;-1.00;92.80;;;;;;5014524;28;20022;-76
2021/12/10 07:58:30;;;;;;;7.38;3.28;;;-0.90;91.90;;;;;;5014916;28;20427;-77
2021/12/10 08:00:56;;;;;;;5.28;2.83;;;-0.80;91.30;;;;;;5013680;28;20420;-77
2021/12/10 08:03:22;;;;;;;5.25;2.88;;;-0.70;91.20;;;;;;5014138;28;20072;-78
2021/12/10 08:05:49;;;;;;;6.03;2.60;;;-0.50;89.50;;;;;;5013448;28;20029;-77
2021/12/10 08:08:16;;;;;;;6.05;2.42;;;-0.50;89.60;;;;;;5012973;28;20030;-77
2021/12/10 08:10:46;;;;;;;6.15;2.47;;;-0.50;89.90;;;;;;5013991;28;20026;-77
2021/12/10 08:13:13;;;;;;;5.72;2.80;;;-0.50;89.60;;;;;;5014152;28;20117;-77
2021/12/10 08:15:39;;;;;;;6.57;2.80;;;-0.40;89.50;;;;;;5013115;28;20129;-77
2021/12/10 08:18:05;;;;;;;3.95;2.25;;;-0.40;89.60;;;;;;5013098;28;20113;-77
2021/12/10 08:20:31;;;;;;;7.47;2.53;;;-0.40;89.30;;;;;;5014568;28;20045;-76
2021/12/10 08:22:57;;;;;;;6.20;2.30;;;-0.40;90.30;;;;;;5013399;28;20068;-77
2021/12/10 08:25:25;;;;;;;4.80;2.33;;;-0.40;89.60;;;;;;5014764;28;20026;-77
2021/12/10 08:27:51;;;;;;;9.15;2.63;;;-0.20;88.40;;;;;;5014309;28;20419;-79
2021/12/10 08:30:20;;;;;;;5.55;2.75;;;-0.10;88.90;;;;;;5015102;28;20030;-77
2021/12/10 08:32:45;;;;;;;6.88;3.50;;;0.00;89.10;;;;;;5014359;28;20022;-78
2021/12/10 08:35:19;;;;;;;7.32;2.65;;;0.10;89.20;;;;;;5014989;28;20455;-77
2021/12/10 08:37:46;;;;;;;4.75;2.30;;;0.20;89.10;;;;;;5013273;28;20025;-77
2021/12/10 08:40:17;;;;;;;3.60;1.75;;;0.20;88.70;;;;;;5001519;28;20038;-78
2021/12/10 08:42:42;;;;;;;5.70;1.92;;;0.20;88.60;;;;;;5017075;28;20379;-78
2021/12/10 08:45:08;;;;;;;4.45;2.00;;;0.40;86.10;;;;;;5018276;28;20030;-78
2021/12/10 08:47:34;;;;;;;5.18;2.30;;;0.50;87.20;;;;;;5016815;28;20296;-77
2021/12/10 08:50:01;;;;;;;5.55;2.20;;;0.50;88.10;;;;;;5016729;28;20034;-77
2021/12/10 08:52:27;;;;;;;3.97;2.20;;;0.40;87.70;;;;;;5016352;28;20473;-77
2021/12/10 08:54:52;;;;;;;5.07;2.25;;;0.50;87.10;;;;;;5017017;28;20034;-77
2021/12/10 08:57:21;;;;;;;3.67;1.98;;;0.40;86.30;;;;;;5017962;28;20021;-78
2021/12/10 08:59:47;;;;;;;5.03;2.08;;;0.40;86.50;;;;;;5017399;28;20037;-77
2021/12/10 09:02:16;;;;;;;5.72;2.10;;;0.50;86.30;;;;;;5017569;28;20306;-78
2021/12/10 09:04:42;;;;;;;4.35;2.10;;;0.60;86.00;;;;;;5018080;28;20022;-77
2021/12/10 09:07:14;;;;;;;23.88;3.00;;;0.70;85.30;;;;;;5014476;28;20077;-77
2021/12/10 09:09:42;;;;;;;32.85;5.03;;;0.70;85.20;;;;;;5018123;28;20022;-77
2021/12/10 09:12:14;;;;;;;6.53;2.13;;;0.80;84.70;;;;;;5017409;28;20319;-78
2021/12/10 09:14:45;;;;;;;5.28;2.00;;;0.80;85.50;;;;;;5018138;28;20100;-77
2021/12/10 09:17:13;;;;;;;5.72;2.20;;;0.80;85.30;;;;;;5017062;28;20493;-77
2021/12/10 09:19:41;;;;;;;5.25;2.17;;;0.80;85.30;;;;;;5017262;28;20026;-78
2021/12/10 09:22:08;;;;;;;4.03;2.10;;;0.80;85.30;;;;;;4999492;28;20089;-77
2021/12/10 09:24:35;;;;;;;6.43;2.35;;;0.60;86.00;;;;;;5018003;28;20026;-78
2021/12/10 09:27:03;;;;;;;5.05;2.25;;;0.70;85.30;;;;;;5016633;28;20419;-78
2021/12/10 09:29:35;;;;;;;4.95;2.50;;;0.70;86.00;;;;;;5017277;28;20073;-78
2021/12/10 09:32:04;;;;;;;7.47;2.60;;;0.80;86.30;;;;;;5017041;28;20021;-78
2021/12/10 09:34:29;;;;;;;4.43;2.30;;;0.80;86.50;;;;;;5016799;28;20029;-78
2021/12/10 09:36:56;;;;;;;5.00;2.40;;;0.80;87.20;;;;;;5016702;28;20030;-76
2021/12/10 09:39:22;;;;;;;6.53;2.42;;;0.80;87.60;;;;;;5017003;28;20112;-77
2021/12/10 09:41:50;;;;;;;6.63;3.10;;;0.90;86.60;;;;;;5017979;28;20077;-78
2021/12/10 09:44:17;;;;;;;7.85;2.97;;;0.90;85.90;;;;;;5017162;28;20435;-77
2021/12/10 09:46:45;;;;;;;11.93;5.07;;;1.00;85.70;;;;;;5014646;28;20315;-78
2021/12/10 09:49:11;;;;;;;4.97;2.55;;;1.10;85.20;;;;;;5016599;28;20319;-78
2021/12/10 09:51:41;;;;;;;5.25;2.45;;;1.30;84.50;;;;;;5016524;28;20049;-77
2021/12/10 09:54:13;;;;;;;4.50;2.33;;;1.20;83.90;;;;;;5013993;28;20022;-78
2021/12/10 09:57:06;;;;;;;4.25;2.30;;;1.20;82.80;;;;;;5016850;28;20052;-77
2021/12/10 09:59:34;;;;;;;5.28;2.28;;;1.30;83.00;;;;;;5017249;28;20029;-78
2021/12/10 10:02:00;;;;;;;5.32;2.17;;;1.40;82.30;;;;;;5016512;28;20026;-78
2021/12/10 10:04:27;;;;;;;4.72;2.30;;;1.40;80.90;;;;;;5017327;28;20032;-76
2021/12/10 10:07:00;;;;;;;4.32;2.00;;;1.40;81.30;;;;;;5016056;28;20125;-78
2021/12/10 10:09:27;;;;;;;7.90;2.38;;;1.40;82.40;;;;;;5017032;28;20362;-78
2021/12/10 10:12:06;;;;;;;4.90;2.70;;;1.30;82.50;;;;;;5017516;28;20360;-77
2021/12/10 10:14:33;;;;;;;5.05;2.70;;;1.40;83.20;;;;;;5015856;28;20105;-78
2021/12/10 10:16:59;;;;;;;5.43;2.42;;;1.40;83.00;;;;;;5015184;28;20041;-78
2021/12/10 10:19:25;;;;;;;17.48;3.40;;;1.40;83.10;;;;;;5016622;28;20025;-79
2021/12/10 10:21:54;;;;;;;4.57;2.22;;;1.50;83.80;;;;;;5016464;28;20029;-77
2021/12/10 10:24:26;;;;;;;5.47;2.63;;;1.70;83.50;;;;;;5014437;28;20374;-76
2021/12/10 10:27:00;;;;;;;7.35;2.75;;;1.80;83.70;;;;;;5017784;28;20315;-76
2021/12/10 10:29:32;;;;;;;5.03;2.47;;;1.80;83.30;;;;;;5015486;28;20045;-76
2021/12/10 10:32:08;;;;;;;6.20;2.30;;;1.90;84.00;;;;;;5017098;28;20499;-76
2021/12/10 10:34:35;;;;;;;5.95;2.60;;;1.90;83.80;;;;;;5016684;28;20036;-78
2021/12/10 10:37:01;;;;;;;5.10;2.15;;;1.90;83.70;;;;;;5015618;28;20423;-78
2021/12/10 10:39:34;;;;;;;4.57;2.10;;;1.70;84.10;;;;;;5015928;28;20037;-79
2021/12/10 10:42:02;;;;;;;4.38;2.10;;;1.60;84.90;;;;;;5016167;28;20096;-78
2021/12/10 10:44:28;;;;;;;7.03;3.25;;;1.60;85.30;;;;;;5013892;28;20036;-77
2021/12/10 10:47:01;;;;;;;6.68;3.53;;;1.50;86.00;;;;;;5001492;28;20113;-78
2021/12/10 10:49:44;;;;;;;6.03;2.72;;;1.40;86.90;;;;;;5016257;28;20454;-77
2021/12/10 10:52:35;;;;;;;5.05;2.58;;;1.30;87.40;;;;;;5014173;28;20025;-77
2021/12/10 10:55:26;;;;;;;4.82;2.60;;;1.10;88.10;;;;;;5014729;28;20018;-77
2021/12/10 10:57:54;;;;;;;5.38;2.70;;;0.90;89.20;;;;;;5016760;28;20069;-77
2021/12/10 11:00:29;;;;;;;6.90;3.25;;;0.80;89.60;;;;;;5015554;28;20046;-78
2021/12/10 11:03:01;;;;;;;9.32;3.13;;;0.70;90.30;;;;;;5014884;28;20017;-77
2021/12/10 11:05:27;;;;;;;4.80;2.60;;;0.60;91.40;;;;;;5016269;28;20114;-76
2021/12/10 11:07:57;;;;;;;6.40;3.30;;;0.60;91.70;;;;;;5015271;28;20088;-76
2021/12/10 11:10:41;;;;;;;6.68;2.75;;;0.60;92.80;;;;;;5011947;28;20026;-76
2021/12/10 11:13:11;;;;;;;7.80;3.22;;;0.60;92.80;;;;;;5014798;28;20431;-77
2021/12/10 11:15:39;;;;;;;6.93;2.83;;;0.70;94.00;;;;;;5013992;28;20029;-77
2021/12/10 11:18:14;;;;;;;7.05;3.97;;;0.60;94.50;;;;;;5014359;28;20026;-79
2021/12/10 11:20:42;;;;;;;7.22;2.63;;;0.50;95.40;;;;;;5013902;28;20022;-78
2021/12/10 11:23:11;;;;;;;4.70;2.53;;;0.50;95.90;;;;;;5006858;28;20029;-77
2021/12/10 11:25:44;;;;;;;6.60;2.17;;;0.50;96.00;;;;;;5014805;28;20033;-76
2021/12/10 11:28:30;;;;;;;3.92;2.30;;;0.50;96.30;;;;;;5031110;28;20042;-78
2021/12/10 11:31:04;;;;;;;5.40;2.38;;;0.50;96.50;;;;;;5030858;28;20026;-77
2021/12/10 11:33:34;;;;;;;5.85;2.72;;;0.50;96.80;;;;;;5015720;28;20026;-77
2021/12/10 11:36:09;;;;;;;5.63;3.08;;;0.60;97.40;;;;;;5015494;28;20022;-77
2021/12/10 11:38:36;;;;;;;5.78;2.45;;;0.70;97.80;;;;;;5014361;28;20061;-78
2021/12/10 11:41:10;;;;;;;6.78;2.40;;;0.70;98.00;;;;;;5002501;28;20023;-77
2021/12/10 11:49:03;;;;;;;16.65;7.55;;;0.70;98.00;;;;;;5007326;28;20041;-77
2021/12/10 11:51:38;;;;;;;7.68;4.13;;;0.80;98.00;;;;;;5011295;28;20022;-77
2021/12/10 11:54:27;;;;;;;62.22;21.85;;;0.90;98.00;;;;;;5013944;28;20029;-76
2021/12/10 11:56:55;;;;;;;55.80;20.20;;;1.00;98.00;;;;;;5012146;28;20053;-76
2021/12/10 11:59:29;;;;;;;79.95;29.23;;;1.10;98.00;;;;;;5015084;28;20034;-77
2021/12/10 12:02:04;;;;;;;37.95;12.00;;;1.10;98.00;;;;;;5015192;28;20033;-76
2021/12/10 12:04:37;;;;;;;58.28;25.75;;;1.20;98.00;;;;;;5015763;28;20021;-77
2021/12/10 12:07:40;;;;;;;7.75;4.00;;;1.10;98.00;;;;;;5013426;28;20386;-77
2021/12/10 12:10:26;;;;;;;4.70;2.65;;;1.10;98.00;;;;;;4989906;28;20042;-76
2021/12/10 12:12:53;;;;;;;5.93;2.65;;;1.10;98.00;;;;;;5006971;28;20018;-77
2021/12/10 12:15:22;;;;;;;7.63;3.70;;;1.20;98.00;;;;;;5017772;28;20026;-77
2021/12/10 12:17:54;;;;;;;5.20;2.95;;;1.30;98.00;;;;;;5018684;28;20026;-76
2021/12/10 12:20:39;;;;;;;12.30;6.35;;;1.30;98.00;;;;;;5019120;28;20064;-76
2021/12/10 12:26:16;;;;;;;5.18;2.53;;;1.50;98.00;;;;;;5018292;28;20367;-77
2021/12/10 12:28:50;;;;;;;5.28;2.63;;;1.50;97.90;;;;;;5017929;28;20049;-77
2021/12/10 12:31:24;;;;;;;5.22;2.88;;;1.40;98.00;;;;;;5016710;28;20452;-77
2021/12/10 12:33:58;;;;;;;4.60;2.53;;;1.40;98.00;;;;;;5013774;28;20022;-77
2021/12/10 12:36:49;;;;;;;5.82;3.22;;;1.50;98.00;;;;;;5018468;28;20057;-76
2021/12/10 12:39:31;;;;;;;9.95;4.55;;;1.70;98.00;;;;;;5016865;28;20117;-76
2021/12/10 12:42:01;;;;;;;10.75;5.20;;;1.80;97.10;;;;;;5017094;28;20037;-77
2021/12/10 12:44:34;;;;;;;4.38;2.10;;;1.90;97.90;;;;;;5018492;28;20029;-76
2021/12/10 12:47:18;;;;;;;5.80;2.28;;;1.80;97.10;;;;;;5018360;28;20133;-76
2021/12/10 12:49:46;;;;;;;4.18;2.28;;;1.50;97.50;;;;;;5016117;28;20030;-77
2021/12/10 12:52:35;;;;;;;6.28;2.72;;;1.50;98.00;;;;;;5017121;28;20029;-77
2021/12/10 12:55:37;;;;;;;3.88;2.28;;;1.60;98.00;;;;;;5017082;28;20030;-76
2021/12/10 12:58:31;;;;;;;4.72;2.70;;;1.60;98.00;;;;;;5017782;28;20095;-77
2021/12/10 13:01:20;;;;;;;4.40;2.15;;;1.50;98.00;;;;;;5006669;28;20022;-78
2021/12/10 13:04:07;;;;;;;4.53;2.03;;;1.50;98.00;;;;;;5015355;28;20029;-77
2021/12/10 13:07:01;;;;;;;4.65;1.83;;;1.50;98.00;;;;;;4998740;28;20057;-78
2021/12/10 13:09:43;;;;;;;3.63;2.05;;;1.40;98.00;;;;;;5009620;28;20033;-76
2021/12/10 13:12:25;;;;;;;4.35;1.92;;;1.40;98.00;;;;;;5007410;28;20052;-77
2021/12/10 13:14:58;;;;;;;3.75;2.13;;;1.40;98.00;;;;;;5017308;28;20025;-77
2021/12/10 13:17:32;;;;;;;4.75;2.33;;;1.40;98.00;;;;;;5025391;28;20086;-76
2021/12/10 13:20:03;;;;;;;5.90;2.65;;;1.50;98.00;;;;;;5016661;28;20041;-76